Time;durP1;ratioP1;P1;durP2;ratioP2;P2;SDS_P1;SDS_P2;PMS_P1;PMS_P2;Temp;Humidity;BMP_temperature;BMP_pressure;BME280_temperature;BME280_humidity;BME280_pressure;Samples;Min_cycle;Max_cycle;Signal;HPM_P1;HPM_P2
2023/03/02 00:00:50;;;;;;;63.40;26.37;;;-7.00;99.90;;;;;;8291306;28;20217;-66
2023/03/02 00:04:57;;;;;;;76.63;30.93;;;-7.00;99.90;;;;;;8294973;28;20187;-64
2023/03/02 00:08:59;;;;;;;61.57;26.70;;;-7.00;99.90;;;;;;8290284;28;20207;-63
2023/03/02 00:13:00;;;;;;;52.63;23.60;;;-7.00;99.90;;;;;;8293006;28;20183;-63
2023/03/02 00:17:01;;;;;;;53.60;23.20;;;-7.00;99.90;;;;;;8291739;28;20308;-65
2023/03/02 00:21:02;;;;;;;47.90;20.37;;;-7.10;1.00;;;;;;8301423;28;20195;-62
2023/03/02 00:25:04;;;;;;;41.93;16.90;;;-7.10;99.90;;;;;;8289846;28;20234;-63
2023/03/02 00:29:06;;;;;;;30.80;15.93;;;-7.20;99.90;;;;;;8295522;28;20270;-64
2023/03/02 00:33:07;;;;;;;39.30;15.50;;;-7.20;32.00;;;;;;8281823;28;20183;-62
2023/03/02 00:37:07;;;;;;;33.23;15.33;;;-7.20;99.90;;;;;;8284341;28;20207;-64
2023/03/02 00:41:11;;;;;;;35.43;15.43;;;-7.20;99.90;;;;;;8282413;28;20186;-63
2023/03/02 00:45:11;;;;;;;29.23;16.50;;;-7.20;99.90;;;;;;8286297;28;20203;-64
2023/03/02 00:49:12;;;;;;;33.63;15.97;;;-7.20;1.00;;;;;;8284412;28;20260;-63
2023/03/02 00:53:13;;;;;;;32.80;15.47;;;-7.20;1.00;;;;;;8285429;28;20195;-64
2023/03/02 00:57:14;;;;;;;31.93;14.87;;;-7.20;1.00;;;;;;8291781;28;20440;-62
2023/03/02 01:01:15;;;;;;;25.57;13.03;;;-7.20;99.90;;;;;;8290788;28;20190;-64
2023/03/02 01:05:16;;;;;;;33.50;13.43;;;-7.30;99.90;;;;;;8286410;28;20194;-65
2023/03/02 01:09:17;;;;;;;28.47;13.23;;;-7.30;1.00;;;;;;8291287;28;20210;-63
2023/03/02 01:13:19;;;;;;;34.00;14.87;;;-7.40;1.00;;;;;;8282187;28;20213;-64
2023/03/02 01:17:21;;;;;;;35.20;15.27;;;-7.40;1.00;;;;;;8285485;28;20266;-63
2023/03/02 01:21:22;;;;;;;34.30;15.87;;;-7.40;1.00;;;;;;8286778;28;20186;-62
2023/03/02 01:25:23;;;;;;;31.40;14.93;;;-7.40;93.80;;;;;;8291593;28;20186;-62
2023/03/02 01:29:24;;;;;;;36.00;15.97;;;-7.40;64.70;;;;;;8286241;28;20249;-63
2023/03/02 01:33:24;;;;;;;26.93;13.63;;;-7.40;1.00;;;;;;8289793;28;20286;-63
2023/03/02 01:37:25;;;;;;;29.30;12.93;;;-7.50;99.90;;;;;;8287587;28;20307;-63
2023/03/02 01:41:27;;;;;;;30.93;13.27;;;-7.50;99.90;;;;;;8295677;28;20205;-63
2023/03/02 01:45:50;;;;;;;29.73;12.77;;;-7.50;99.90;;;;;;8284795;28;20198;-62
2023/03/02 01:50:18;;;;;;;31.63;13.50;;;-7.60;99.90;;;;;;8301375;28;20207;-63
2023/03/02 01:54:21;;;;;;;28.97;12.63;;;-7.70;24.60;;;;;;8306190;28;20194;-64
2023/03/02 01:58:25;;;;;;;35.27;15.20;;;-7.70;99.90;;;;;;8286893;28;20215;-62
2023/03/02 02:02:26;;;;;;;39.20;17.83;;;-7.60;99.90;;;;;;8281725;28;20289;-63
2023/03/02 02:07:02;;;;;;;41.37;16.90;;;-7.60;1.00;;;;;;8285348;28;20214;-64
2023/03/02 02:11:03;;;;;;;35.40;15.80;;;-7.60;1.00;;;;;;8288612;28;20289;-63
2023/03/02 02:15:05;;;;;;;37.03;15.93;;;-7.70;99.90;;;;;;8283833;28;20186;-64
2023/03/02 02:19:34;;;;;;;40.30;17.43;;;-7.70;99.90;;;;;;8302625;28;20273;-63
2023/03/02 02:23:53;;;;;;;42.17;16.67;;;-7.70;99.90;;;;;;8282091;28;20191;-63
2023/03/02 02:27:56;;;;;;;37.03;16.93;;;-7.70;99.90;;;;;;8287526;28;20301;-63
2023/03/02 02:32:05;;;;;;;33.87;16.40;;;-7.70;99.90;;;;;;8278060;28;20178;-64
2023/03/02 02:36:13;;;;;;;31.50;15.50;;;-7.70;99.90;;;;;;8288494;28;20202;-62
2023/03/02 02:40:52;;;;;;;30.37;15.37;;;-7.80;99.90;;;;;;8288155;28;20191;-64
2023/03/02 02:45:00;;;;;;;39.90;17.00;;;-7.80;99.90;;;;;;8285824;28;20224;-64
2023/03/02 02:49:03;;;;;;;35.83;16.63;;;-7.80;99.90;;;;;;8285898;28;20206;-62
2023/03/02 02:53:25;;;;;;;36.73;16.13;;;-7.80;99.90;;;;;;8280274;28;20201;-62
2023/03/02 02:57:28;;;;;;;39.00;15.87;;;-7.80;1.00;;;;;;8288973;28;20214;-63
2023/03/02 03:01:29;;;;;;;36.97;15.67;;;-7.90;1.00;;;;;;8282012;28;20187;-62
2023/03/02 03:05:30;;;;;;;33.87;16.27;;;-7.90;1.00;;;;;;8289622;28;20274;-64
2023/03/02 03:09:31;;;;;;;41.33;17.40;;;-8.00;1.00;;;;;;8286144;28;20333;-62
2023/03/02 03:13:33;;;;;;;39.37;16.57;;;-8.00;1.00;;;;;;8287538;28;20268;-63
2023/03/02 03:17:33;;;;;;;38.27;17.40;;;-8.00;1.00;;;;;;8293057;28;20191;-64
2023/03/02 03:21:35;;;;;;;32.57;16.33;;;-8.00;1.00;;;;;;8298797;28;20198;-64
2023/03/02 03:25:35;;;;;;;38.47;17.03;;;-8.00;99.90;;;;;;8289841;28;20553;-62
2023/03/02 03:29:38;;;;;;;43.60;19.07;;;-8.00;99.90;;;;;;8292211;28;20213;-62
2023/03/02 03:33:39;;;;;;;47.10;20.97;;;-8.00;99.90;;;;;;8291890;28;20185;-62
2023/03/02 03:37:40;;;;;;;54.43;22.07;;;-7.90;1.00;;;;;;8296146;28;20194;-62
2023/03/02 03:41:41;;;;;;;53.23;21.63;;;-7.90;1.00;;;;;;8286016;28;20201;-62
2023/03/02 03:45:42;;;;;;;44.03;20.03;;;-7.90;1.00;;;;;;8290484;28;20206;-63
2023/03/02 03:49:43;;;;;;;49.67;20.63;;;-7.90;1.00;;;;;;8292801;28;20249;-63
2023/03/02 03:53:44;;;;;;;50.27;20.23;;;-8.00;1.00;;;;;;8289490;28;20186;-64
2023/03/02 03:57:45;;;;;;;43.20;19.87;;;-8.00;1.00;;;;;;8291809;28;20244;-61
2023/03/02 04:01:49;;;;;;;43.07;19.70;;;-8.00;1.00;;;;;;8293615;28;20198;-63
2023/03/02 04:05:51;;;;;;;48.23;19.50;;;-8.00;1.00;;;;;;8274377;28;20227;-63
2023/03/02 04:10:02;;;;;;;48.47;21.00;;;-8.00;1.00;;;;;;8293421;28;20290;-64
2023/03/02 04:14:03;;;;;;;48.97;20.80;;;-8.00;1.00;;;;;;8289411;28;20194;-64
2023/03/02 04:18:04;;;;;;;45.93;20.53;;;-8.00;99.90;;;;;;8292128;28;20194;-64
2023/03/02 04:22:05;;;;;;;53.80;21.77;;;-8.00;99.90;;;;;;8288938;28;20493;-65
2023/03/02 04:26:06;;;;;;;70.00;23.20;;;-8.00;99.90;;;;;;8284076;28;20195;-64
2023/03/02 04:30:08;;;;;;;109.17;34.40;;;-8.00;1.00;;;;;;8288455;28;20261;-64
2023/03/02 04:34:08;;;;;;;99.30;34.77;;;-8.00;1.00;;;;;;8287541;28;20184;-63
2023/03/02 04:38:09;;;;;;;120.67;40.13;;;-7.90;1.00;;;;;;8283544;28;20248;-64
2023/03/02 04:42:10;;;;;;;117.33;39.90;;;-7.90;99.90;;;;;;8286976;28;20209;-62
2023/03/02 04:46:17;;;;;;;108.53;35.97;;;-7.90;99.90;;;;;;8286118;28;20225;-62
2023/03/02 04:50:17;;;;;;;91.87;32.73;;;-7.80;99.90;;;;;;8288402;28;20187;-62
2023/03/02 04:54:24;;;;;;;75.20;28.20;;;-7.70;99.90;;;;;;8291220;28;20218;-63
2023/03/02 04:58:25;;;;;;;66.13;25.30;;;-7.80;99.90;;;;;;8286513;28;20198;-63
2023/03/02 05:02:26;;;;;;;59.17;24.67;;;-7.80;99.90;;;;;;8284854;28;20277;-64
2023/03/02 05:06:26;;;;;;;52.63;23.20;;;-7.90;99.90;;;;;;8284890;28;20231;-64
2023/03/02 05:10:27;;;;;;;52.07;21.20;;;-7.90;99.90;;;;;;8295225;28;20191;-64
2023/03/02 05:14:29;;;;;;;51.73;20.33;;;-7.90;99.90;;;;;;8279223;28;20187;-62
2023/03/02 05:18:30;;;;;;;50.97;21.80;;;-7.90;99.90;;;;;;8288804;28;20285;-63
2023/03/02 05:22:31;;;;;;;52.17;20.73;;;-8.00;99.90;;;;;;8278672;28;20199;-62
2023/03/02 05:26:31;;;;;;;65.57;26.80;;;-8.00;99.90;;;;;;8287807;28;20207;-64
2023/03/02 05:30:36;;;;;;;66.37;27.43;;;-7.90;99.90;;;;;;8284560;28;20662;-62
2023/03/02 05:34:37;;;;;;;56.67;24.70;;;-7.90;99.90;;;;;;8301643;28;20599;-62
2023/03/02 05:38:38;;;;;;;60.80;26.07;;;-7.80;1.00;;;;;;8289909;28;20195;-63
2023/03/02 05:42:39;;;;;;;56.27;24.10;;;-7.80;99.90;;;;;;8287332;28;20190;-63
2023/03/02 05:46:40;;;;;;;54.63;22.83;;;-7.80;99.90;;;;;;8287028;28;20226;-66
2023/03/02 05:50:41;;;;;;;49.57;21.73;;;-7.80;99.90;;;;;;8288268;28;20256;-63
2023/03/02 05:54:42;;;;;;;49.80;22.47;;;-7.80;1.00;;;;;;8284847;28;20195;-67
2023/03/02 05:58:43;;;;;;;52.10;22.33;;;-7.80;1.00;;;;;;8291481;28;20197;-67
2023/03/02 06:02:44;;;;;;;70.30;27.17;;;-7.70;80.10;;;;;;8288831;28;20197;-67
2023/03/02 06:06:45;;;;;;;62.93;26.60;;;-7.50;99.90;;;;;;8290586;28;20217;-67
2023/03/02 06:10:46;;;;;;;85.73;34.37;;;-7.40;1.00;;;;;;8288843;28;20218;-67
2023/03/02 06:14:47;;;;;;;80.67;34.27;;;-7.20;99.90;;;;;;8289882;28;20199;-67
2023/03/02 06:18:48;;;;;;;73.57;31.70;;;-7.10;99.90;;;;;;8283242;28;20197;-67
2023/03/02 06:22:48;;;;;;;114.33;45.60;;;-7.00;79.80;;;;;;8290402;28;20206;-67
2023/03/02 06:26:52;;;;;;;108.93;46.17;;;-6.90;99.90;;;;;;8291318;28;20207;-67
2023/03/02 06:30:53;;;;;;;105.40;43.57;;;-6.70;99.90;;;;;;8288497;28;20196;-71
2023/03/02 06:34:53;;;;;;;111.60;46.57;;;-6.60;99.90;;;;;;8284017;28;20206;-67
2023/03/02 06:38:54;;;;;;;112.57;47.00;;;-6.50;99.90;;;;;;8287866;28;20266;-67
2023/03/02 06:42:55;;;;;;;109.53;46.73;;;-6.40;99.90;;;;;;8286899;28;20196;-67
2023/03/02 06:46:56;;;;;;;110.80;47.73;;;-6.30;99.90;;;;;;8292429;28;20214;-67
2023/03/02 06:50:56;;;;;;;118.87;49.67;;;-6.10;53.30;;;;;;8294957;28;20186;-68
2023/03/02 06:54:57;;;;;;;140.13;56.63;;;-5.90;99.90;;;;;;8301499;28;20323;-68
2023/03/02 06:58:58;;;;;;;138.60;59.37;;;-5.80;1.00;;;;;;8296653;28;20183;-69
2023/03/02 07:02:59;;;;;;;194.70;85.80;;;-5.60;1.00;;;;;;8301170;28;20269;-69
2023/03/02 07:07:00;;;;;;;169.03;75.43;;;-5.50;1.00;;;;;;8300043;28;20209;-68
2023/03/02 07:11:04;;;;;;;154.07;70.90;;;-5.30;99.90;;;;;;8294719;28;20178;-68
2023/03/02 07:15:11;;;;;;;170.07;72.20;;;-5.00;99.90;;;;;;8284382;28;20197;-69
2023/03/02 07:19:15;;;;;;;186.60;80.60;;;-4.80;1.00;;;;;;8301729;28;20253;-69
2023/03/02 07:23:16;;;;;;;187.80;84.43;;;-4.50;99.90;;;;;;8297786;28;20185;-69
2023/03/02 07:27:17;;;;;;;179.60;85.90;;;-4.20;1.00;;;;;;8296805;28;20264;-69
2023/03/02 07:31:17;;;;;;;202.83;95.03;;;-4.00;1.00;;;;;;8328167;28;20179;-69
2023/03/02 07:35:18;;;;;;;200.43;88.63;;;-3.80;99.90;;;;;;8292532;28;20281;-69
2023/03/02 07:39:19;;;;;;;184.80;85.43;;;-3.50;16.70;;;;;;8293950;28;20191;-69
2023/03/02 07:43:22;;;;;;;170.47;81.67;;;-3.20;99.90;;;;;;8295297;28;20194;-68
2023/03/02 07:47:23;;;;;;;155.80;73.50;;;-3.00;1.00;;;;;;8293993;28;20216;-69
2023/03/02 07:51:24;;;;;;;204.57;89.63;;;-2.70;99.90;;;;;;8289748;28;20190;-71
2023/03/02 07:55:26;;;;;;;195.53;87.50;;;-2.50;1.00;;;;;;8287848;28;20205;-69
2023/03/02 07:59:27;;;;;;;130.30;67.33;;;-2.30;1.00;;;;;;8288701;28;20234;-69
2023/03/02 08:03:28;;;;;;;140.03;63.00;;;-2.10;99.90;;;;;;8290943;28;20191;-69
2023/03/02 08:07:29;;;;;;;119.40;59.20;;;-1.80;1.00;;;;;;8298682;28;20214;-69
2023/03/02 08:11:30;;;;;;;116.37;56.20;;;-1.60;88.40;;;;;;8285847;28;20191;-69
2023/03/02 08:15:30;;;;;;;115.63;55.47;;;-1.30;1.00;;;;;;8292640;28;20189;-69
2023/03/02 08:19:32;;;;;;;88.00;47.60;;;-1.10;99.90;;;;;;8285915;28;20664;-69
2023/03/02 08:23:33;;;;;;;92.83;48.87;;;-0.80;99.90;;;;;;8291099;28;20196;-68
2023/03/02 08:27:33;;;;;;;109.47;52.67;;;-0.60;16.40;;;;;;8289414;28;20356;-68
2023/03/02 08:31:34;;;;;;;101.60;50.83;;;-0.40;1.00;;;;;;8292469;28;20182;-67
2023/03/02 08:35:35;;;;;;;91.23;48.30;;;-0.20;1.00;;;;;;8288706;28;20210;-69
2023/03/02 08:39:36;;;;;;;82.77;43.07;;;0.00;99.90;;;;;;8284607;28;20186;-69
2023/03/02 08:43:37;;;;;;;88.97;45.40;;;0.30;99.90;;;;;;8283205;28;20180;-68
2023/03/02 08:47:38;;;;;;;84.23;45.60;;;0.50;73.90;;;;;;8287973;28;20206;-68
2023/03/02 08:51:38;;;;;;;81.57;43.07;;;0.70;39.20;;;;;;8288406;28;20190;-67
2023/03/02 08:55:39;;;;;;;80.27;42.60;;;1.00;1.00;;;;;;8289088;28;20180;-68
2023/03/02 08:59:41;;;;;;;69.63;40.93;;;1.30;1.00;;;;;;8296087;28;20193;-67
2023/03/02 09:03:41;;;;;;;71.30;40.73;;;1.50;99.90;;;;;;8291623;28;20251;-67
2023/03/02 09:07:43;;;;;;;57.87;33.13;;;1.80;99.90;;;;;;8290759;28;20207;-66
2023/03/02 09:11:44;;;;;;;54.60;33.47;;;2.10;99.90;;;;;;8283487;28;20179;-66
2023/03/02 09:15:44;;;;;;;50.07;29.43;;;2.40;99.90;;;;;;8304332;28;20600;-65
2023/03/02 09:19:45;;;;;;;46.87;27.90;;;2.60;99.90;;;;;;8283100;28;20267;-66
2023/03/02 09:23:46;;;;;;;46.50;27.03;;;2.90;99.90;;;;;;8291854;28;20191;-66
2023/03/02 09:27:47;;;;;;;55.03;29.47;;;3.10;99.90;;;;;;8285113;28;20205;-67
2023/03/02 09:31:48;;;;;;;44.93;25.57;;;3.40;99.90;;;;;;8286172;28;20197;-67
2023/03/02 09:35:49;;;;;;;40.20;25.30;;;3.70;99.90;;;;;;8287365;28;20230;-66
2023/03/02 09:39:49;;;;;;;44.87;25.90;;;4.00;99.90;;;;;;8290961;28;20279;-65
2023/03/02 09:44:22;;;;;;;47.70;27.07;;;4.20;99.90;;;;;;8284620;28;20209;-66
2023/03/02 09:48:23;;;;;;;40.17;23.33;;;4.40;95.80;;;;;;8290086;28;20203;-66
2023/03/02 09:52:34;;;;;;;35.30;21.00;;;4.60;65.80;;;;;;8288691;28;20178;-69
2023/03/02 09:56:38;;;;;;;52.83;27.23;;;4.80;46.70;;;;;;8291195;28;20186;-66
2023/03/02 10:00:42;;;;;;;36.73;21.90;;;4.90;44.20;;;;;;8285241;28;20189;-66
2023/03/02 10:04:49;;;;;;;32.67;20.13;;;5.20;30.70;;;;;;8291614;28;20183;-67
2023/03/02 10:08:49;;;;;;;30.10;18.37;;;5.30;19.40;;;;;;8286943;28;20286;-68
2023/03/02 10:13:20;;;;;;;29.70;18.60;;;5.30;18.00;;;;;;8284256;28;20260;-67
2023/03/02 10:17:25;;;;;;;29.60;17.47;;;5.50;14.80;;;;;;8285298;28;20278;-68
2023/03/02 10:21:36;;;;;;;27.43;16.40;;;5.60;10.10;;;;;;8286954;28;20185;-69
2023/03/02 10:25:47;;;;;;;26.83;17.67;;;5.70;4.30;;;;;;8300074;28;20198;-67
2023/03/02 10:30:09;;;;;;;26.17;15.83;;;5.80;2.00;;;;;;8286725;28;20217;-68
2023/03/02 10:34:10;;;;;;;26.23;16.77;;;5.80;1.00;;;;;;8279220;28;20269;-67
2023/03/02 10:38:14;;;;;;;21.63;13.13;;;5.90;1.00;;;;;;8292705;28;20233;-67
2023/03/02 10:42:21;;;;;;;23.30;15.00;;;5.90;1.00;;;;;;8277275;28;20194;-67
2023/03/02 10:46:22;;;;;;;26.97;16.17;;;6.00;1.00;;;;;;8293326;28;20203;-67
2023/03/02 10:50:23;;;;;;;23.80;15.53;;;6.10;1.00;;;;;;8286355;28;20194;-68
2023/03/02 10:54:24;;;;;;;41.87;20.83;;;6.30;1.00;;;;;;8289290;28;20184;-68
2023/03/02 10:58:30;;;;;;;21.10;14.37;;;6.40;1.00;;;;;;8283236;28;20198;-68
2023/03/02 11:02:35;;;;;;;25.00;15.13;;;6.40;1.00;;;;;;8275997;28;20215;-68
2023/03/02 11:06:35;;;;;;;21.00;13.90;;;6.60;1.00;;;;;;8274369;28;20198;-67
2023/03/02 11:10:39;;;;;;;23.43;14.77;;;6.70;1.00;;;;;;8289599;28;20187;-68
2023/03/02 11:14:41;;;;;;;21.93;14.20;;;6.70;1.00;;;;;;8282788;28;20204;-68
2023/03/02 11:19:07;;;;;;;22.67;15.83;;;6.80;1.00;;;;;;8286514;28;20180;-70
2023/03/02 11:23:20;;;;;;;24.00;15.53;;;6.90;1.00;;;;;;8284254;28;20213;-68
2023/03/02 11:27:29;;;;;;;24.93;16.23;;;7.00;1.00;;;;;;8278838;28;20281;-68
2023/03/02 11:31:46;;;;;;;26.97;16.63;;;7.00;1.00;;;;;;8282610;28;20190;-68
2023/03/02 11:35:58;;;;;;;29.60;16.53;;;7.10;1.00;;;;;;8296128;28;20206;-67
2023/03/02 11:40:04;;;;;;;23.47;15.73;;;7.10;1.00;;;;;;8289191;28;20317;-67
2023/03/02 11:44:15;;;;;;;27.63;17.40;;;7.30;1.00;;;;;;8306728;28;20210;-68
2023/03/02 11:48:47;;;;;;;31.37;19.67;;;7.30;1.00;;;;;;8277773;28;20211;-68
2023/03/02 11:52:57;;;;;;;23.50;14.90;;;7.40;1.00;;;;;;8292856;28;20187;-69
2023/03/02 11:56:59;;;;;;;27.37;17.13;;;7.40;1.00;;;;;;8289586;28;20191;-68
2023/03/02 12:01:02;;;;;;;24.73;15.87;;;7.50;1.00;;;;;;8294376;28;20191;-68
2023/03/02 12:05:07;;;;;;;25.97;14.43;;;7.50;1.00;;;;;;8282878;28;20191;-68
2023/03/02 12:09:31;;;;;;;19.83;13.37;;;7.60;1.00;;;;;;8295659;28;20214;-68
2023/03/02 12:13:38;;;;;;;21.13;13.77;;;7.60;1.00;;;;;;8289582;28;20183;-68
2023/03/02 12:17:39;;;;;;;24.13;14.90;;;7.70;1.00;;;;;;8287524;28;20310;-68
2023/03/02 12:22:01;;;;;;;17.97;12.43;;;7.70;1.00;;;;;;8281682;28;20183;-67
2023/03/02 12:26:08;;;;;;;21.10;13.37;;;7.80;1.00;;;;;;8291568;28;20210;-69
2023/03/02 12:30:22;;;;;;;19.90;13.53;;;7.90;1.00;;;;;;8307087;28;20210;-68
2023/03/02 12:34:33;;;;;;;18.53;12.43;;;8.00;1.00;;;;;;8297855;28;20182;-68
2023/03/02 12:38:38;;;;;;;19.00;12.40;;;8.10;1.00;;;;;;8318414;28;20183;-67
2023/03/02 12:43:08;;;;;;;18.63;12.27;;;8.20;1.00;;;;;;8293703;28;20222;-67
2023/03/02 12:47:25;;;;;;;20.20;12.67;;;8.20;1.00;;;;;;8289439;28;20285;-68
2023/03/02 12:51:29;;;;;;;25.57;13.77;;;8.30;1.00;;;;;;8290447;28;20191;-67
2023/03/02 12:55:31;;;;;;;22.07;13.00;;;8.30;1.00;;;;;;8286533;28;20227;-68
2023/03/02 12:59:32;;;;;;;18.63;11.63;;;8.30;1.00;;;;;;8295687;28;20182;-67
2023/03/02 13:03:33;;;;;;;15.37;9.93;;;8.30;1.00;;;;;;8285710;28;20207;-68
2023/03/02 13:07:37;;;;;;;16.33;10.57;;;8.30;1.00;;;;;;8289050;28;20206;-68
2023/03/02 13:11:38;;;;;;;17.57;11.70;;;8.20;1.00;;;;;;8286859;28;20462;-68
2023/03/02 13:15:48;;;;;;;19.70;11.53;;;8.30;1.00;;;;;;8294220;28;20202;-68
2023/03/02 13:19:49;;;;;;;16.60;10.50;;;8.40;1.00;;;;;;8291331;28;20278;-68
2023/03/02 13:23:50;;;;;;;19.70;11.23;;;8.40;1.00;;;;;;8289821;28;20270;-69
2023/03/02 13:27:59;;;;;;;10.77;6.83;;;8.40;1.00;;;;;;8299991;28;20203;-69
2023/03/02 13:32:20;;;;;;;24.20;12.73;;;8.50;1.00;;;;;;8278706;28;20195;-68
2023/03/02 13:36:40;;;;;;;19.03;12.50;;;8.50;1.00;;;;;;8286845;28;20260;-68
2023/03/02 13:40:47;;;;;;;21.00;13.57;;;8.60;1.00;;;;;;8288567;28;20211;-68
2023/03/02 13:44:47;;;;;;;24.77;14.10;;;8.70;1.00;;;;;;8287632;28;20218;-67
2023/03/02 13:48:58;;;;;;;24.63;15.00;;;8.70;1.00;;;;;;8288881;28;20207;-67
2023/03/02 13:53:05;;;;;;;23.43;14.70;;;8.70;1.00;;;;;;8291530;28;20190;-68
2023/03/02 13:57:05;;;;;;;23.80;14.87;;;8.80;1.00;;;;;;8284831;28;20241;-69
2023/03/02 14:01:06;;;;;;;28.10;17.37;;;8.80;1.00;;;;;;8293679;28;20666;-68
2023/03/02 14:05:24;;;;;;;24.77;16.73;;;8.80;1.00;;;;;;8288003;28;20186;-67
2023/03/02 14:09:26;;;;;;;25.70;17.00;;;8.80;1.00;;;;;;8286213;28;20265;-67
2023/03/02 14:13:36;;;;;;;38.53;21.50;;;8.70;1.00;;;;;;8289453;28;20837;-68
2023/03/02 14:17:37;;;;;;;27.50;16.73;;;8.70;1.00;;;;;;8289596;28;20261;-70
2023/03/02 14:21:38;;;;;;;22.30;14.27;;;8.70;1.00;;;;;;8286487;28;20249;-68
2023/03/02 14:25:39;;;;;;;26.63;15.33;;;8.60;1.00;;;;;;8287226;28;20184;-68
2023/03/02 14:29:41;;;;;;;29.40;17.37;;;8.60;1.00;;;;;;8291277;28;20222;-68
2023/03/02 14:33:43;;;;;;;40.17;20.63;;;8.60;1.00;;;;;;8277326;28;20183;-68
2023/03/02 14:37:47;;;;;;;26.47;15.03;;;8.60;1.00;;;;;;8282464;28;20379;-68
2023/03/02 14:41:49;;;;;;;24.27;15.07;;;8.50;1.00;;;;;;8294833;28;20179;-67
2023/03/02 14:45:53;;;;;;;25.20;15.70;;;8.50;1.00;;;;;;8286301;28;20262;-68
2023/03/02 14:49:54;;;;;;;28.33;16.63;;;8.40;1.00;;;;;;8275690;28;20199;-68
2023/03/02 14:53:57;;;;;;;25.63;14.87;;;8.30;1.00;;;;;;8289129;28;20228;-68
2023/03/02 14:58:16;;;;;;;28.93;16.67;;;8.30;1.00;;;;;;8278146;28;20187;-68
2023/03/02 15:02:18;;;;;;;41.80;19.63;;;8.20;1.00;;;;;;8283137;28;20291;-68
2023/03/02 15:06:23;;;;;;;29.87;17.77;;;8.20;1.00;;;;;;8292545;28;20186;-68
2023/03/02 15:10:24;;;;;;;26.33;16.07;;;8.10;1.00;;;;;;8292658;28;20225;-68
2023/03/02 15:14:24;;;;;;;27.43;17.47;;;8.00;1.00;;;;;;8289298;28;20175;-69
2023/03/02 15:18:25;;;;;;;31.80;18.17;;;7.90;1.00;;;;;;8292288;28;20520;-68
2023/03/02 15:22:26;;;;;;;28.27;16.57;;;7.90;1.00;;;;;;8294436;28;20262;-68
2023/03/02 15:26:27;;;;;;;34.30;19.97;;;7.80;1.00;;;;;;8291793;28;20623;-68
2023/03/02 15:30:29;;;;;;;41.63;21.87;;;7.70;1.00;;;;;;8289315;28;20686;-68
2023/03/02 15:34:30;;;;;;;42.83;22.27;;;7.60;1.00;;;;;;8287183;28;20183;-68
2023/03/02 15:38:32;;;;;;;26.17;15.97;;;7.60;1.00;;;;;;8291375;28;20590;-68
2023/03/02 15:42:33;;;;;;;24.40;15.83;;;7.50;1.00;;;;;;8298432;28;20196;-68
2023/03/02 15:46:34;;;;;;;30.70;18.73;;;7.40;1.00;;;;;;8294368;28;20337;-68
2023/03/02 15:50:35;;;;;;;49.47;25.90;;;7.20;1.00;;;;;;8288782;28;20189;-73
2023/03/02 15:54:35;;;;;;;65.23;39.13;;;7.20;1.00;;;;;;8291782;28;20178;-74
2023/03/02 15:58:36;;;;;;;102.70;59.07;;;7.10;2.60;;;;;;8294776;28;20190;-72
2023/03/02 16:02:37;;;;;;;77.40;48.27;;;6.90;44.00;;;;;;8293974;28;20187;-72
2023/03/02 16:06:38;;;;;;;80.43;48.13;;;6.70;85.50;;;;;;8291601;28;20183;-73
2023/03/02 16:10:41;;;;;;;91.27;54.83;;;6.40;99.90;;;;;;8293605;28;20265;-74
2023/03/02 16:14:42;;;;;;;66.17;41.50;;;6.10;99.90;;;;;;8288121;28;20190;-72
2023/03/02 16:18:43;;;;;;;92.80;52.40;;;5.80;99.90;;;;;;8294510;28;20217;-73
2023/03/02 16:22:44;;;;;;;105.60;54.17;;;5.60;99.90;;;;;;8287012;28;20621;-72
2023/03/02 16:26:44;;;;;;;88.57;49.87;;;5.40;99.90;;;;;;8295972;28;20183;-73
2023/03/02 16:30:46;;;;;;;103.70;57.93;;;5.00;99.90;;;;;;8286352;28;20180;-73
2023/03/02 16:34:47;;;;;;;159.40;90.80;;;4.80;99.90;;;;;;8286385;28;20194;-72
2023/03/02 16:38:48;;;;;;;89.27;55.67;;;4.50;99.90;;;;;;8286370;28;20222;-72
2023/03/02 16:42:49;;;;;;;95.37;53.43;;;4.30;99.90;;;;;;8296131;28;20230;-73
2023/03/02 16:46:50;;;;;;;84.83;49.63;;;4.10;99.90;;;;;;8289230;28;20203;-72
2023/03/02 16:50:56;;;;;;;87.77;50.83;;;3.90;99.90;;;;;;8293253;28;20185;-73
2023/03/02 16:54:57;;;;;;;88.93;48.87;;;3.60;99.90;;;;;;8289489;28;20188;-73
2023/03/02 16:58:58;;;;;;;114.87;59.23;;;3.40;99.90;;;;;;8298124;28;20189;-73
2023/03/02 17:02:59;;;;;;;93.57;55.17;;;3.20;1.00;;;;;;8326767;28;20187;-72
2023/03/02 17:07:01;;;;;;;98.33;54.30;;;3.00;1.00;;;;;;8291724;28;20258;-70
2023/03/02 17:11:02;;;;;;;80.80;44.20;;;2.80;1.00;;;;;;8293397;28;20200;-70
2023/03/02 17:15:04;;;;;;;97.47;51.80;;;2.70;1.00;;;;;;8295801;28;20210;-69
2023/03/02 17:19:05;;;;;;;96.60;52.63;;;2.50;1.00;;;;;;8293930;28;20252;-69
2023/03/02 17:23:06;;;;;;;79.50;42.70;;;2.30;88.00;;;;;;8288174;28;20186;-69
2023/03/02 17:27:07;;;;;;;69.30;38.47;;;2.10;99.90;;;;;;8292130;28;20215;-70
2023/03/02 17:31:08;;;;;;;80.30;43.40;;;1.80;99.90;;;;;;8294251;28;20249;-69
2023/03/02 17:35:11;;;;;;;96.30;51.93;;;1.60;99.90;;;;;;8290977;28;20321;-69
2023/03/02 17:39:12;;;;;;;102.77;51.37;;;1.50;1.00;;;;;;8291352;28;20179;-69
2023/03/02 17:43:13;;;;;;;96.77;49.93;;;1.30;46.60;;;;;;8295539;28;20282;-70
2023/03/02 17:47:15;;;;;;;135.93;61.90;;;1.10;99.90;;;;;;8286905;28;20211;-69
2023/03/02 17:51:16;;;;;;;133.97;60.87;;;1.00;1.00;;;;;;8291455;28;20190;-69
2023/03/02 17:55:17;;;;;;;87.23;44.10;;;0.90;99.90;;;;;;8316338;28;20189;-68
2023/03/02 17:59:18;;;;;;;116.67;49.60;;;0.70;1.00;;;;;;8293959;28;20188;-69
2023/03/02 18:03:19;;;;;;;131.90;57.27;;;0.70;1.00;;;;;;8291689;28;20292;-69
2023/03/02 18:07:20;;;;;;;156.57;66.93;;;0.80;99.90;;;;;;8294945;28;20245;-69
2023/03/02 18:11:22;;;;;;;110.80;48.90;;;0.80;99.90;;;;;;8290248;28;20194;-69
2023/03/02 18:15:25;;;;;;;275.63;100.33;;;0.90;1.00;;;;;;8293059;28;20190;-69
2023/03/02 18:19:26;;;;;;;132.27;54.87;;;0.90;1.00;;;;;;8288561;28;20182;-69
2023/03/02 18:23:28;;;;;;;106.10;48.40;;;0.90;99.90;;;;;;8292272;28;20237;-69
2023/03/02 18:27:29;;;;;;;142.53;59.83;;;0.90;99.90;;;;;;8284167;28;20269;-69
2023/03/02 18:31:32;;;;;;;141.23;62.93;;;1.00;99.90;;;;;;8289645;28;20191;-66
2023/03/02 18:35:33;;;;;;;144.97;63.33;;;0.90;99.90;;;;;;8285412;28;20217;-69
2023/03/02 18:39:36;;;;;;;151.17;66.07;;;0.90;1.00;;;;;;8283131;28;20257;-69
2023/03/02 18:43:40;;;;;;;122.97;52.23;;;0.90;95.60;;;;;;8300116;28;20188;-69
2023/03/02 18:47:41;;;;;;;118.87;52.27;;;0.90;99.90;;;;;;8291305;28;20207;-69
2023/03/02 18:51:42;;;;;;;92.10;46.40;;;0.90;1.00;;;;;;8295635;28;20201;-68
2023/03/02 18:55:43;;;;;;;107.33;48.57;;;0.90;99.90;;;;;;8288269;28;20270;-68
2023/03/02 18:59:44;;;;;;;172.37;75.33;;;0.90;99.90;;;;;;8294447;28;20186;-68
2023/03/02 19:03:45;;;;;;;135.30;69.80;;;0.80;99.90;;;;;;8293702;28;20236;-68
2023/03/02 19:07:46;;;;;;;103.87;48.70;;;0.80;1.00;;;;;;8292435;28;20216;-68
2023/03/02 19:11:47;;;;;;;95.47;43.53;;;0.80;99.90;;;;;;8291049;28;20174;-69
2023/03/02 19:15:49;;;;;;;131.57;56.20;;;0.70;1.00;;;;;;8297531;28;21566;-69
2023/03/02 19:19:50;;;;;;;241.13;109.70;;;0.60;1.00;;;;;;8297042;28;20216;-68
2023/03/02 19:23:50;;;;;;;111.47;51.03;;;0.60;99.90;;;;;;8293553;28;20191;-68
2023/03/02 19:27:51;;;;;;;92.87;43.77;;;0.60;39.30;;;;;;8296624;28;20201;-69
2023/03/02 19:31:54;;;;;;;90.83;43.30;;;0.50;99.90;;;;;;8291559;28;20183;-69
2023/03/02 19:35:55;;;;;;;86.57;38.93;;;0.50;10.20;;;;;;8296838;28;20288;-68
2023/03/02 19:39:56;;;;;;;103.30;40.97;;;0.50;1.00;;;;;;8292380;28;20189;-68
2023/03/02 19:43:57;;;;;;;84.20;38.90;;;0.50;1.00;;;;;;8292246;28;20266;-68
2023/03/02 19:47:59;;;;;;;76.83;36.70;;;0.50;1.00;;;;;;8286830;28;20307;-68
2023/03/02 19:52:00;;;;;;;74.07;35.87;;;0.40;99.90;;;;;;8295093;28;20185;-67
2023/03/02 19:56:05;;;;;;;68.93;33.47;;;0.40;99.90;;;;;;8290294;28;20215;-68
2023/03/02 20:00:12;;;;;;;70.73;34.53;;;0.40;99.90;;;;;;8310946;28;20197;-67
2023/03/02 20:04:13;;;;;;;87.10;37.13;;;0.30;1.00;;;;;;8292795;28;20196;-68
2023/03/02 20:08:15;;;;;;;99.97;43.73;;;0.30;99.90;;;;;;8295276;28;20269;-69
2023/03/02 20:12:16;;;;;;;75.17;37.73;;;0.30;1.00;;;;;;8284178;28;20221;-68
2023/03/02 20:16:21;;;;;;;92.43;41.53;;;0.30;1.00;;;;;;8293805;28;20193;-67
2023/03/02 20:20:23;;;;;;;84.10;35.90;;;0.30;99.90;;;;;;8290269;28;20187;-68
2023/03/02 20:24:24;;;;;;;76.93;34.90;;;0.20;99.90;;;;;;8291869;28;20196;-69
2023/03/02 20:28:25;;;;;;;76.23;34.37;;;0.30;99.90;;;;;;8289917;28;20305;-68
2023/03/02 20:32:26;;;;;;;56.07;29.03;;;0.20;99.90;;;;;;8291110;28;20185;-68
2023/03/02 20:36:31;;;;;;;50.70;25.73;;;0.20;99.90;;;;;;8288778;28;20213;-69
2023/03/02 20:40:33;;;;;;;49.20;25.33;;;0.20;99.90;;;;;;8290726;28;20276;-68
2023/03/02 20:44:35;;;;;;;50.30;24.97;;;0.20;99.90;;;;;;8288848;28;20289;-69
2023/03/02 20:48:36;;;;;;;46.23;23.27;;;0.20;99.90;;;;;;8289320;28;20273;-69